Time;durP1;ratioP1;P1;durP2;ratioP2;P2;SDS_P1;SDS_P2;PMS_P1;PMS_P2;Temp;Humidity;BMP_temperature;BMP_pressure;BME280_temperature;BME280_humidity;BME280_pressure;Samples;Min_cycle;Max_cycle;Signal;HPM_P1;HPM_P2
2022/08/03 00:01:37;;;;;;;5.43;5.00;;;21.10;92.90;;;;;;4999191;28;20177;-51
2022/08/03 00:04:04;;;;;;;5.40;5.00;;;21.10;93.20;;;;;;5014625;28;20437;-47
2022/08/03 00:06:29;;;;;;;6.10;5.50;;;21.10;93.20;;;;;;5014703;28;20707;-50
2022/08/03 00:08:55;;;;;;;6.23;5.73;;;21.00;93.30;;;;;;4999033;28;20430;-49
2022/08/03 00:11:20;;;;;;;6.40;5.90;;;21.00;93.50;;;;;;4999466;28;20265;-49
2022/08/03 00:13:46;;;;;;;5.60;5.10;;;21.00;93.60;;;;;;4999508;28;20274;-49
2022/08/03 00:16:12;;;;;;;6.40;5.90;;;21.00;93.80;;;;;;4998113;28;20321;-51
2022/08/03 00:18:38;;;;;;;5.90;5.40;;;20.90;93.70;;;;;;4998581;28;20206;-49
2022/08/03 00:21:04;;;;;;;7.00;6.27;;;20.90;93.80;;;;;;4998818;28;20170;-50
2022/08/03 00:23:29;;;;;;;7.00;6.47;;;20.90;93.90;;;;;;4998583;28;20416;-48
2022/08/03 00:25:56;;;;;;;6.60;6.00;;;20.90;93.90;;;;;;4998499;28;20820;-47
2022/08/03 00:28:21;;;;;;;6.47;5.97;;;21.00;93.90;;;;;;4998777;28;20211;-48
2022/08/03 00:30:47;;;;;;;6.37;5.87;;;21.00;94.30;;;;;;4998930;28;20851;-49
2022/08/03 00:33:13;;;;;;;12.30;6.10;;;21.00;93.90;;;;;;4998722;28;20573;-48
2022/08/03 00:35:38;;;;;;;7.17;6.57;;;21.10;93.90;;;;;;4998693;28;20213;-49
2022/08/03 00:38:04;;;;;;;6.13;5.63;;;21.00;93.80;;;;;;4996819;28;20271;-49
2022/08/03 00:40:31;;;;;;;6.10;5.60;;;21.00;93.90;;;;;;4998011;28;20211;-50
2022/08/03 00:43:02;;;;;;;5.43;5.03;;;21.00;93.70;;;;;;4999011;28;20430;-48
2022/08/03 00:45:33;;;;;;;6.83;5.57;;;21.00;93.80;;;;;;4998654;28;20467;-50
2022/08/03 00:48:00;;;;;;;6.00;5.40;;;21.00;93.70;;;;;;4998194;28;20421;-47
2022/08/03 00:50:27;;;;;;;6.23;5.73;;;20.90;93.60;;;;;;4998063;28;20913;-50
2022/08/03 00:52:56;;;;;;;6.07;5.57;;;20.90;93.60;;;;;;4997787;28;20413;-49
2022/08/03 00:55:22;;;;;;;6.13;5.63;;;20.90;93.70;;;;;;4997809;28;20490;-47
2022/08/03 00:57:48;;;;;;;5.43;4.93;;;21.00;93.70;;;;;;4997954;28;20458;-48
2022/08/03 01:00:17;;;;;;;6.13;5.57;;;20.90;93.70;;;;;;4997759;28;20464;-49
2022/08/03 01:02:43;;;;;;;6.27;5.77;;;20.90;93.70;;;;;;4997703;28;20414;-49
2022/08/03 01:05:09;;;;;;;6.20;5.70;;;20.90;93.70;;;;;;4997977;28;20437;-50
2022/08/03 01:07:50;;;;;;;6.20;5.80;;;20.90;93.70;;;;;;4998148;28;20271;-53
2022/08/03 01:10:30;;;;;;;6.10;5.50;;;20.90;93.80;;;;;;4997553;28;20449;-48
2022/08/03 01:13:06;;;;;;;5.83;5.33;;;20.80;93.80;;;;;;4997326;28;20421;-48
2022/08/03 01:15:45;;;;;;;5.97;5.47;;;20.80;93.90;;;;;;5012112;28;20579;-47
2022/08/03 01:18:17;;;;;;;5.67;5.17;;;20.80;94.00;;;;;;5012957;28;20436;-50
2022/08/03 01:20:48;;;;;;;5.50;5.10;;;20.80;94.00;;;;;;5012593;28;20417;-47
2022/08/03 01:23:36;;;;;;;6.20;5.70;;;20.80;94.00;;;;;;5013108;28;20531;-46
2022/08/03 01:26:38;;;;;;;6.80;6.07;;;20.80;94.00;;;;;;4997478;28;20483;-48
2022/08/03 01:29:29;;;;;;;5.60;5.20;;;20.70;94.00;;;;;;4997305;28;20531;-47
2022/08/03 01:32:00;;;;;;;5.40;4.90;;;20.70;94.10;;;;;;4997699;28;20478;-48
2022/08/03 01:34:30;;;;;;;5.93;5.43;;;20.70;94.10;;;;;;5012617;28;20485;-49
2022/08/03 01:36:56;;;;;;;6.47;5.87;;;20.70;94.10;;;;;;4997026;28;20438;-47
2022/08/03 01:39:23;;;;;;;5.40;5.00;;;20.70;94.20;;;;;;4997210;28;20491;-48
2022/08/03 01:42:04;;;;;;;5.67;5.17;;;20.70;94.10;;;;;;5012389;28;20435;-50
2022/08/03 01:44:34;;;;;;;6.20;5.70;;;20.70;94.20;;;;;;5012378;28;20586;-53
2022/08/03 01:47:01;;;;;;;5.33;4.87;;;20.70;94.10;;;;;;4980072;28;20610;-49
2022/08/03 01:49:29;;;;;;;6.17;5.63;;;20.70;94.20;;;;;;4997200;28;20455;-50
2022/08/03 01:51:55;;;;;;;5.87;5.37;;;20.70;94.20;;;;;;4997184;28;20449;-47
2022/08/03 01:54:22;;;;;;;6.27;5.77;;;20.70;94.30;;;;;;4997016;28;20577;-48
2022/08/03 01:56:49;;;;;;;6.10;5.60;;;20.60;94.30;;;;;;4997082;28;20426;-56
2022/08/03 01:59:15;;;;;;;6.13;5.60;;;20.60;94.40;;;;;;4995883;28;20446;-48
2022/08/03 02:01:42;;;;;;;7.03;6.43;;;20.70;94.40;;;;;;5015994;28;20726;-48
2022/08/03 02:04:08;;;;;;;6.37;5.87;;;20.70;94.40;;;;;;5000574;28;20486;-48
2022/08/03 02:06:35;;;;;;;6.10;5.60;;;20.60;94.40;;;;;;5000909;28;20805;-49
2022/08/03 02:09:01;;;;;;;6.43;5.50;;;20.60;94.50;;;;;;5000585;28;20472;-48
2022/08/03 02:11:30;;;;;;;6.20;5.70;;;20.60;94.60;;;;;;5000722;28;20823;-49
2022/08/03 02:13:57;;;;;;;6.37;5.87;;;20.50;94.60;;;;;;5015783;28;20435;-49
2022/08/03 02:16:23;;;;;;;5.83;5.33;;;20.50;94.80;;;;;;5016230;28;20932;-49
2022/08/03 02:18:50;;;;;;;6.00;5.53;;;20.50;94.90;;;;;;5000643;28;20420;-48
2022/08/03 02:21:16;;;;;;;6.07;5.67;;;20.50;94.90;;;;;;5000864;28;20458;-50
2022/08/03 02:23:42;;;;;;;5.80;5.40;;;20.50;94.90;;;;;;5015922;28;20579;-51
2022/08/03 02:26:11;;;;;;;7.70;7.10;;;20.50;95.00;;;;;;5000560;28;20436;-48
2022/08/03 02:28:40;;;;;;;6.07;5.57;;;20.50;95.00;;;;;;5000334;28;20182;-51
2022/08/03 02:31:13;;;;;;;6.67;6.07;;;20.40;95.00;;;;;;5015647;28;20703;-49
2022/08/03 02:33:43;;;;;;;6.60;6.10;;;20.40;95.00;;;;;;5015530;28;20439;-52
2022/08/03 02:36:10;;;;;;;6.67;6.07;;;20.40;95.20;;;;;;4999524;28;20883;-48
2022/08/03 02:38:40;;;;;;;6.40;5.90;;;20.40;95.20;;;;;;5015574;28;20415;-47
2022/08/03 02:41:16;;;;;;;6.47;5.97;;;20.40;95.20;;;;;;5015438;28;20435;-52
2022/08/03 02:43:44;;;;;;;6.20;5.70;;;20.40;95.30;;;;;;5000551;28;20419;-54
2022/08/03 02:46:12;;;;;;;5.73;5.27;;;20.40;95.30;;;;;;4999882;28;20430;-48
2022/08/03 02:48:40;;;;;;;6.30;5.80;;;20.40;95.30;;;;;;5015442;28;20427;-50
2022/08/03 02:51:06;;;;;;;6.80;6.20;;;20.40;95.20;;;;;;5000122;28;20846;-48
2022/08/03 02:53:33;;;;;;;8.00;6.20;;;20.50;95.20;;;;;;5015247;28;20430;-49
2022/08/03 02:55:59;;;;;;;6.53;6.03;;;20.50;95.10;;;;;;5015267;28;20905;-49
2022/08/03 02:58:25;;;;;;;6.97;6.30;;;20.40;94.90;;;;;;4999758;28;20432;-49
2022/08/03 03:00:51;;;;;;;6.63;6.13;;;20.40;95.20;;;;;;5013962;28;20426;-49
2022/08/03 03:03:17;;;;;;;6.60;6.10;;;20.30;95.30;;;;;;5014178;28;20221;-49
2022/08/03 03:05:43;;;;;;;7.10;6.50;;;20.30;95.50;;;;;;4997590;28;20473;-49
2022/08/03 03:08:12;;;;;;;6.60;6.10;;;20.20;95.60;;;;;;4995429;28;20432;-49
2022/08/03 03:10:38;;;;;;;6.63;6.13;;;20.20;95.70;;;;;;4994908;28;20535;-52
2022/08/03 03:13:04;;;;;;;7.47;6.87;;;20.20;95.80;;;;;;5009880;28;21019;-49
2022/08/03 03:15:30;;;;;;;7.37;6.77;;;20.20;95.80;;;;;;5010968;28;20487;-52
2022/08/03 03:17:56;;;;;;;6.67;6.17;;;20.10;95.80;;;;;;5011976;28;20421;-50
2022/08/03 03:20:23;;;;;;;6.80;6.30;;;20.10;95.90;;;;;;5013416;28;20457;-51
2022/08/03 03:22:49;;;;;;;6.70;6.10;;;20.10;95.90;;;;;;4998352;28;20439;-49
2022/08/03 03:25:15;;;;;;;6.20;5.70;;;20.10;95.90;;;;;;5014405;28;20500;-51
2022/08/03 03:27:41;;;;;;;6.13;5.73;;;20.10;95.90;;;;;;5014759;28;20438;-48
2022/08/03 03:30:08;;;;;;;6.47;5.87;;;20.10;95.80;;;;;;4998948;28;20436;-49
2022/08/03 03:32:35;;;;;;;6.87;6.27;;;20.20;95.80;;;;;;5014590;28;20496;-48
2022/08/03 03:35:01;;;;;;;6.87;6.37;;;20.20;95.70;;;;;;5013927;28;20846;-48
2022/08/03 03:37:27;;;;;;;7.40;6.67;;;20.20;95.70;;;;;;5013357;28;20441;-51
2022/08/03 03:39:56;;;;;;;7.03;6.47;;;20.20;95.60;;;;;;5013456;28;20903;-49
2022/08/03 03:42:21;;;;;;;7.10;6.50;;;20.10;95.60;;;;;;4997889;28;20187;-50
2022/08/03 03:44:47;;;;;;;6.70;6.20;;;20.10;95.60;;;;;;5013179;28;20909;-52
2022/08/03 03:47:13;;;;;;;7.33;6.27;;;20.10;95.60;;;;;;4999049;28;20577;-50
2022/08/03 03:49:39;;;;;;;9.40;6.47;;;20.10;95.70;;;;;;4999480;28;20600;-48
2022/08/03 03:52:05;;;;;;;7.67;6.97;;;20.10;95.70;;;;;;4998928;28;20229;-50
2022/08/03 03:54:41;;;;;;;8.13;7.33;;;20.10;95.70;;;;;;4997369;28;20511;-48
2022/08/03 03:57:07;;;;;;;7.00;6.47;;;20.10;95.80;;;;;;4997746;28;20445;-50
2022/08/03 03:59:37;;;;;;;7.93;7.17;;;20.10;95.90;;;;;;4997746;28;20415;-49
2022/08/03 04:02:04;;;;;;;7.23;6.63;;;20.10;96.00;;;;;;4996903;28;20458;-51
2022/08/03 04:12:46;;;;;;;6.60;6.00;;;20.10;96.00;;;;;;5007547;28;20427;-51
2022/08/03 04:15:12;;;;;;;8.10;7.50;;;20.10;96.00;;;;;;4994580;28;20472;-47
2022/08/03 04:17:38;;;;;;;7.10;6.50;;;20.10;96.00;;;;;;5009848;28;20465;-49
2022/08/03 04:20:05;;;;;;;7.10;6.60;;;20.10;96.00;;;;;;4995340;28;20513;-48
2022/08/03 04:22:31;;;;;;;7.47;6.87;;;20.10;96.00;;;;;;4996205;28;20442;-51
2022/08/03 04:25:08;;;;;;;8.20;7.50;;;20.10;95.90;;;;;;5012246;28;20458;-48
2022/08/03 04:27:37;;;;;;;7.33;6.63;;;20.10;95.90;;;;;;5012053;28;20433;-51
2022/08/03 04:30:04;;;;;;;7.73;7.03;;;20.20;95.90;;;;;;5011965;28;20432;-42
2022/08/03 04:32:31;;;;;;;7.30;6.67;;;20.20;95.80;;;;;;5010788;28;20531;-53
2022/08/03 04:34:56;;;;;;;6.53;5.93;;;20.20;95.80;;;;;;4993499;28;20537;-49
2022/08/03 04:37:42;;;;;;;8.20;7.50;;;20.20;95.70;;;;;;4993963;28;21028;-50
2022/08/03 04:40:13;;;;;;;6.97;6.47;;;20.30;95.70;;;;;;5008660;28;20455;-49
2022/08/03 04:42:39;;;;;;;7.53;6.93;;;20.30;95.60;;;;;;5009082;28;20883;-51
2022/08/03 04:45:06;;;;;;;7.17;6.57;;;20.40;95.60;;;;;;5009726;28;20888;-51
2022/08/03 04:47:33;;;;;;;6.57;5.97;;;20.40;95.50;;;;;;5010189;28;20445;-53
2022/08/03 04:50:02;;;;;;;7.80;6.37;;;20.50;95.50;;;;;;4996260;28;20422;-49
2022/08/03 04:52:28;;;;;;;6.80;6.20;;;20.50;95.30;;;;;;4996113;28;20963;-49
2022/08/03 04:54:54;;;;;;;7.70;5.83;;;20.50;95.20;;;;;;4994040;28;20477;-52
2022/08/03 04:57:19;;;;;;;7.20;6.50;;;20.60;95.20;;;;;;4996904;28;20436;-54
2022/08/03 04:59:48;;;;;;;6.47;5.97;;;20.60;95.10;;;;;;4995986;28;20179;-49
2022/08/03 05:02:14;;;;;;;7.70;7.00;;;20.70;95.10;;;;;;4995239;28;20558;-54
2022/08/03 05:04:45;;;;;;;6.63;6.13;;;20.70;95.00;;;;;;4995330;28;20508;-53
2022/08/03 05:07:13;;;;;;;7.27;6.67;;;20.80;94.90;;;;;;4996364;28;20456;-52
2022/08/03 05:09:39;;;;;;;7.03;6.43;;;20.80;94.90;;;;;;4996176;28;20502;-53
2022/08/03 05:12:05;;;;;;;7.10;6.50;;;20.80;94.80;;;;;;4997245;28;20451;-52
2022/08/03 05:14:32;;;;;;;7.37;6.67;;;20.80;94.70;;;;;;4995652;28;20352;-53
2022/08/03 05:16:57;;;;;;;6.13;5.70;;;20.90;94.70;;;;;;4993417;28;20800;-52
2022/08/03 05:19:23;;;;;;;7.20;6.70;;;20.90;94.70;;;;;;4991818;28;20508;-49
2022/08/03 05:21:49;;;;;;;7.30;6.70;;;20.90;94.60;;;;;;4994061;28;20197;-50
2022/08/03 05:24:14;;;;;;;7.13;6.53;;;21.00;94.60;;;;;;4994208;28;20200;-51
2022/08/03 05:26:40;;;;;;;7.70;6.90;;;21.00;94.50;;;;;;4994327;28;20190;-50
2022/08/03 05:29:06;;;;;;;7.50;6.90;;;21.10;94.40;;;;;;4994981;28;20227;-49
2022/08/03 05:31:31;;;;;;;6.97;6.47;;;21.10;94.40;;;;;;4995572;28;20187;-50
2022/08/03 05:33:57;;;;;;;7.53;6.83;;;21.20;94.30;;;;;;4995932;28;20197;-50
2022/08/03 05:36:23;;;;;;;7.47;6.87;;;21.20;94.20;;;;;;4999227;28;20250;-51
2022/08/03 05:38:48;;;;;;;7.43;6.80;;;21.30;94.20;;;;;;4999379;28;20196;-50
2022/08/03 05:41:14;;;;;;;7.60;7.00;;;21.30;94.10;;;;;;5000225;28;20646;-50
2022/08/03 05:43:39;;;;;;;7.00;6.40;;;21.40;94.00;;;;;;4998825;28;20183;-49
2022/08/03 05:46:05;;;;;;;7.30;6.70;;;21.50;93.90;;;;;;4998563;28;20217;-49
2022/08/03 05:48:30;;;;;;;7.30;6.80;;;21.50;93.80;;;;;;4999601;28;20200;-52
2022/08/03 05:50:56;;;;;;;7.07;6.47;;;21.60;93.70;;;;;;5000314;28;20201;-50
2022/08/03 05:53:22;;;;;;;7.67;7.07;;;21.70;93.50;;;;;;4999507;28;20197;-49
2022/08/03 05:55:47;;;;;;;10.07;7.23;;;21.80;93.30;;;;;;4999366;28;20608;-53
2022/08/03 05:58:13;;;;;;;7.87;6.43;;;21.80;93.20;;;;;;4998100;28;20168;-51
2022/08/03 06:00:38;;;;;;;8.17;7.47;;;21.90;93.00;;;;;;4997289;28;20182;-49
2022/08/03 06:03:04;;;;;;;7.33;6.83;;;22.00;92.90;;;;;;4998190;28;20418;-50
2022/08/03 06:05:31;;;;;;;8.00;7.20;;;22.00;92.90;;;;;;4997602;28;20185;-49
2022/08/03 06:07:57;;;;;;;8.30;7.50;;;22.10;92.80;;;;;;4997191;28;20415;-53
2022/08/03 06:10:22;;;;;;;6.87;6.27;;;22.10;92.70;;;;;;4998352;28;20415;-51
2022/08/03 06:12:49;;;;;;;7.97;7.30;;;22.20;92.50;;;;;;5012729;28;20172;-52
2022/08/03 06:15:15;;;;;;;8.00;6.60;;;22.40;92.40;;;;;;4997045;28;20210;-50
2022/08/03 06:17:48;;;;;;;7.70;7.10;;;22.40;92.10;;;;;;4995748;28;20440;-49
2022/08/03 06:20:17;;;;;;;7.67;6.97;;;22.50;91.80;;;;;;4996937;28;20352;-50
2022/08/03 06:22:43;;;;;;;7.53;6.83;;;22.70;91.80;;;;;;4997862;28;20430;-50
2022/08/03 06:25:08;;;;;;;6.60;6.00;;;22.70;91.90;;;;;;4998923;28;20433;-50
2022/08/03 06:27:38;;;;;;;6.63;6.03;;;22.90;91.40;;;;;;4995504;28;20451;-49
2022/08/03 06:30:09;;;;;;;6.50;6.00;;;23.00;91.10;;;;;;4995083;28;20190;-50
2022/08/03 06:32:35;;;;;;;6.83;6.23;;;23.20;90.90;;;;;;4995161;28;20975;-50
2022/08/03 06:35:01;;;;;;;6.80;6.30;;;23.30;90.50;;;;;;4994746;28;20543;-51
2022/08/03 06:37:27;;;;;;;5.93;5.43;;;23.50;90.00;;;;;;4994946;28;20446;-48
2022/08/03 06:39:53;;;;;;;5.33;4.83;;;23.60;89.30;;;;;;4995520;28;20384;-50
2022/08/03 06:42:19;;;;;;;6.00;5.40;;;23.70;89.20;;;;;;4995886;28;20910;-50
2022/08/03 06:44:44;;;;;;;5.37;4.93;;;23.70;88.90;;;;;;4997077;28;20195;-50
2022/08/03 06:47:10;;;;;;;5.50;5.00;;;23.80;88.50;;;;;;4996152;28;20187;-51
2022/08/03 06:49:36;;;;;;;5.30;4.80;;;24.00;88.60;;;;;;4995264;28;20257;-50
2022/08/03 06:52:02;;;;;;;5.33;4.93;;;24.20;88.10;;;;;;4993209;28;20190;-51
2022/08/03 06:54:27;;;;;;;7.40;4.77;;;24.30;87.50;;;;;;4993677;28;20386;-49
2022/08/03 06:56:53;;;;;;;4.70;4.40;;;24.50;86.40;;;;;;4993963;28;20630;-50
2022/08/03 06:59:19;;;;;;;4.53;4.13;;;24.60;86.10;;;;;;4995158;28;20283;-50
2022/08/03 07:01:44;;;;;;;5.00;4.50;;;24.70;86.30;;;;;;4993364;28;20273;-52
2022/08/03 07:04:10;;;;;;;4.70;4.30;;;24.90;85.60;;;;;;4993856;28;20250;-52
2022/08/03 07:06:37;;;;;;;5.53;5.03;;;25.10;85.30;;;;;;4992635;28;20184;-52
2022/08/03 07:09:03;;;;;;;4.67;4.33;;;25.20;85.40;;;;;;4994934;28;20171;-50
2022/08/03 07:11:29;;;;;;;4.83;4.40;;;25.40;85.00;;;;;;4994791;28;20737;-50
2022/08/03 07:13:55;;;;;;;4.13;3.73;;;25.50;84.70;;;;;;4995039;28;20409;-50
2022/08/03 07:16:21;;;;;;;5.17;3.93;;;25.60;82.70;;;;;;4994703;28;20227;-51
2022/08/03 07:18:46;;;;;;;4.30;4.00;;;25.70;81.70;;;;;;4995078;28;20408;-51
2022/08/03 07:21:12;;;;;;;3.77;3.47;;;25.80;81.50;;;;;;4995388;28;20818;-49
2022/08/03 07:23:38;;;;;;;4.20;3.80;;;25.90;81.40;;;;;;4994809;28;20207;-51
2022/08/03 07:26:04;;;;;;;3.97;3.50;;;25.90;80.10;;;;;;4995141;28;20177;-49
2022/08/03 07:28:30;;;;;;;4.30;3.70;;;26.00;80.20;;;;;;4993409;28;20500;-49
2022/08/03 07:30:55;;;;;;;3.57;3.27;;;26.10;80.30;;;;;;4993767;28;20439;-51
2022/08/03 07:33:21;;;;;;;4.10;3.80;;;26.20;79.40;;;;;;4996509;28;20475;-50
2022/08/03 07:35:47;;;;;;;3.57;3.27;;;26.30;79.50;;;;;;4996438;28;20253;-51
2022/08/03 07:38:12;;;;;;;3.40;3.00;;;26.30;78.50;;;;;;4996287;28;20267;-51
2022/08/03 07:40:38;;;;;;;4.20;3.90;;;26.40;77.30;;;;;;4996239;28;20185;-52
2022/08/03 07:43:03;;;;;;;4.67;3.57;;;26.30;77.90;;;;;;4994453;28;20185;-55
2022/08/03 07:45:32;;;;;;;3.30;3.00;;;26.40;77.80;;;;;;4996077;28;20184;-51
2022/08/03 07:47:58;;;;;;;4.27;3.87;;;26.50;76.30;;;;;;4997269;28;20266;-50
2022/08/03 07:50:24;;;;;;;3.63;3.33;;;26.60;76.20;;;;;;4996326;28;20562;-54
2022/08/03 07:52:51;;;;;;;3.60;3.23;;;26.70;75.30;;;;;;4995822;28;20262;-51
2022/08/03 07:55:27;;;;;;;3.00;2.73;;;26.80;75.00;;;;;;4994892;28;20570;-42
2022/08/03 07:58:08;;;;;;;4.00;2.97;;;27.00;73.10;;;;;;4994203;28;20420;-41
2022/08/03 08:00:34;;;;;;;3.87;2.90;;;27.20;72.40;;;;;;4994632;28;20744;-41
2022/08/03 08:03:00;;;;;;;3.40;3.10;;;27.30;72.30;;;;;;4994197;28;20411;-41
2022/08/03 08:05:28;;;;;;;3.57;2.83;;;27.50;70.80;;;;;;4994497;28;20422;-43
2022/08/03 08:07:54;;;;;;;3.97;2.90;;;27.80;69.90;;;;;;4994511;28;20839;-41
2022/08/03 08:10:20;;;;;;;3.50;2.60;;;28.10;68.60;;;;;;4994424;28;20416;-44
2022/08/03 08:12:46;;;;;;;2.97;2.67;;;28.10;67.00;;;;;;4994482;28;20419;-41
2022/08/03 08:15:11;;;;;;;3.23;3.03;;;28.20;66.90;;;;;;4995277;28;20473;-45
2022/08/03 08:17:46;;;;;;;3.47;3.17;;;28.20;67.10;;;;;;5009988;28;20173;-43
2022/08/03 08:20:16;;;;;;;3.20;3.00;;;28.20;67.10;;;;;;4994262;28;20173;-41
2022/08/03 08:22:42;;;;;;;2.97;2.77;;;28.60;67.00;;;;;;4995959;28;20415;-42
2022/08/03 08:25:07;;;;;;;2.97;2.77;;;28.80;65.30;;;;;;4996663;28;20417;-43
2022/08/03 08:27:39;;;;;;;3.30;3.00;;;28.90;63.50;;;;;;4996737;28;20191;-42
2022/08/03 08:30:05;;;;;;;3.13;2.87;;;28.80;64.40;;;;;;4995191;28;20559;-42
2022/08/03 08:32:30;;;;;;;2.83;2.53;;;29.00;63.60;;;;;;4994672;28;20864;-41
2022/08/03 08:34:56;;;;;;;3.13;2.73;;;29.10;63.20;;;;;;4994402;28;20832;-41
2022/08/03 08:37:22;;;;;;;2.73;2.53;;;29.20;62.70;;;;;;4995865;28;20258;-41
2022/08/03 08:39:47;;;;;;;3.33;3.03;;;29.50;60.60;;;;;;4996758;28;20552;-43
2022/08/03 08:42:14;;;;;;;3.27;2.70;;;29.60;61.30;;;;;;4996787;28;20451;-42
2022/08/03 08:44:40;;;;;;;2.67;2.47;;;29.70;59.30;;;;;;4994923;28;20187;-44
2022/08/03 08:47:07;;;;;;;2.73;2.53;;;29.70;59.60;;;;;;4995746;28;20432;-42
2022/08/03 08:49:35;;;;;;;2.87;2.57;;;29.80;59.90;;;;;;5010964;28;20249;-43
2022/08/03 08:52:02;;;;;;;3.07;2.77;;;30.10;58.80;;;;;;5010000;28;20493;-41
2022/08/03 08:54:28;;;;;;;3.10;2.80;;;30.40;57.40;;;;;;4993168;28;20419;-42
2022/08/03 08:56:58;;;;;;;4.23;2.63;;;30.40;57.20;;;;;;4996641;28;20432;-41
2022/08/03 08:59:24;;;;;;;2.70;2.50;;;30.50;55.60;;;;;;5008606;28;20477;-42
2022/08/03 09:01:49;;;;;;;2.80;2.60;;;30.40;56.10;;;;;;5009966;28;20461;-42
2022/08/03 09:04:15;;;;;;;4.10;2.70;;;30.40;56.00;;;;;;4994153;28;20413;-41
2022/08/03 09:06:41;;;;;;;2.70;2.50;;;30.60;55.40;;;;;;4994805;28;20228;-41
2022/08/03 09:09:07;;;;;;;2.83;2.63;;;30.60;55.40;;;;;;4996540;28;20280;-44
2022/08/03 09:11:32;;;;;;;2.83;2.63;;;30.70;54.70;;;;;;5003813;28;20763;-42
2022/08/03 09:13:58;;;;;;;2.70;2.50;;;30.90;54.40;;;;;;5014902;28;20409;-41
2022/08/03 09:16:24;;;;;;;2.60;2.40;;;30.80;53.40;;;;;;5013837;28;20219;-42
2022/08/03 09:18:52;;;;;;;3.40;2.83;;;30.70;53.30;;;;;;5015263;28;20266;-41
2022/08/03 09:21:30;;;;;;;2.97;2.77;;;30.90;53.60;;;;;;5015999;28;20444;-44
2022/08/03 09:23:58;;;;;;;2.83;2.63;;;31.30;53.10;;;;;;5013748;28;20680;-41
2022/08/03 09:26:26;;;;;;;2.70;2.50;;;31.60;52.90;;;;;;5015440;28;20833;-41
2022/08/03 09:29:02;;;;;;;2.90;2.60;;;31.70;51.80;;;;;;5014549;28;20404;-39
2022/08/03 09:31:41;;;;;;;2.60;2.40;;;31.70;49.80;;;;;;5014051;28;20689;-40
2022/08/03 09:34:09;;;;;;;2.70;2.50;;;31.60;50.50;;;;;;5015307;28;20488;-40
2022/08/03 09:36:46;;;;;;;2.93;2.73;;;31.80;50.50;;;;;;5014225;28;20500;-44
2022/08/03 09:39:16;;;;;;;3.10;2.63;;;32.10;50.80;;;;;;5014907;28;20452;-41
2022/08/03 09:41:44;;;;;;;2.77;2.57;;;32.50;50.20;;;;;;5014159;28;20435;-41
2022/08/03 09:44:10;;;;;;;2.80;2.60;;;32.80;49.90;;;;;;5015938;28;20411;-41
2022/08/03 09:46:54;;;;;;;2.83;2.57;;;33.30;46.00;;;;;;5014355;28;20841;-40
2022/08/03 09:49:20;;;;;;;3.33;2.43;;;33.30;46.50;;;;;;5017244;28;20182;-41
2022/08/03 09:51:45;;;;;;;3.33;3.03;;;32.80;46.80;;;;;;5016251;28;20762;-40
2022/08/03 09:54:11;;;;;;;2.60;2.40;;;33.00;47.30;;;;;;5012268;28;20183;-42
2022/08/03 09:56:41;;;;;;;2.97;2.77;;;33.50;46.50;;;;;;5012527;28;20219;-41
2022/08/03 09:59:12;;;;;;;3.07;2.77;;;33.80;46.00;;;;;;5013674;28;20261;-41
2022/08/03 10:01:41;;;;;;;2.80;2.60;;;34.00;45.80;;;;;;5014307;28;20400;-40
2022/08/03 10:04:15;;;;;;;2.90;2.63;;;34.40;44.10;;;;;;5013118;28;20480;-42
2022/08/03 10:06:44;;;;;;;2.77;2.57;;;34.50;43.80;;;;;;5011421;28;20653;-42
2022/08/03 10:09:10;;;;;;;3.27;2.97;;;34.80;43.90;;;;;;5011160;28;20591;-40
2022/08/03 10:11:37;;;;;;;2.53;2.30;;;35.00;42.30;;;;;;5013563;28;20442;-42
2022/08/03 10:14:08;;;;;;;2.63;2.43;;;35.00;42.50;;;;;;5013261;28;20400;-41
2022/08/03 10:16:35;;;;;;;2.60;2.40;;;35.00;42.80;;;;;;5012355;28;20450;-41
2022/08/03 10:19:03;;;;;;;2.80;2.60;;;35.00;42.70;;;;;;5013134;28;20585;-42
2022/08/03 10:21:33;;;;;;;2.90;2.60;;;35.00;42.20;;;;;;5023410;28;20476;-41
2022/08/03 10:24:02;;;;;;;3.23;2.40;;;35.10;42.20;;;;;;5036806;28;20421;-42
2022/08/03 10:26:31;;;;;;;2.87;2.67;;;35.10;42.60;;;;;;5007186;28;20558;-42
2022/08/03 10:29:00;;;;;;;2.30;2.10;;;35.40;42.20;;;;;;4998107;28;20533;-41
2022/08/03 10:31:34;;;;;;;2.87;2.67;;;35.30;41.30;;;;;;5007176;28;20417;-41
2022/08/03 10:34:00;;;;;;;3.37;2.80;;;35.20;41.90;;;;;;5019001;28;20426;-42
2022/08/03 10:36:29;;;;;;;2.97;2.77;;;35.40;40.80;;;;;;5017290;28;20450;-42
2022/08/03 10:38:55;;;;;;;3.27;2.97;;;35.30;41.40;;;;;;5015759;28;20456;-44
2022/08/03 10:41:31;;;;;;;2.50;2.30;;;35.30;42.10;;;;;;4996025;28;20621;-41
2022/08/03 10:44:02;;;;;;;3.60;2.50;;;35.70;40.80;;;;;;5007206;28;20762;-43
2022/08/03 10:46:28;;;;;;;2.60;2.40;;;36.50;42.40;;;;;;5032225;28;20720;-41
2022/08/03 10:48:55;;;;;;;2.63;2.43;;;37.40;40.80;;;;;;5015964;28;20401;-46
2022/08/03 10:51:22;;;;;;;3.37;2.97;;;38.30;40.10;;;;;;5031166;28;20284;-42
2022/08/03 10:53:48;;;;;;;3.30;2.83;;;38.80;38.20;;;;;;4997523;28;20408;-41
2022/08/03 10:59:45;;;;;;;3.33;2.77;;;38.40;37.00;;;;;;4998891;28;20188;-42
2022/08/03 11:02:12;;;;;;;3.17;2.47;;;37.80;38.50;;;;;;4995828;28;20456;-42
2022/08/03 11:04:39;;;;;;;3.27;2.83;;;38.10;38.20;;;;;;4992471;28;20424;-41
2022/08/03 11:07:24;;;;;;;2.63;2.43;;;38.30;37.50;;;;;;4992320;28;20428;-42
2022/08/03 11:09:51;;;;;;;3.03;2.73;;;38.60;37.20;;;;;;4993564;28;20794;-41
2022/08/03 11:12:31;;;;;;;2.67;2.43;;;38.00;37.10;;;;;;4995777;28;20459;-43
2022/08/03 11:14:59;;;;;;;3.03;2.83;;;37.50;37.70;;;;;;4995581;28;20480;-42
2022/08/03 11:17:25;;;;;;;3.00;2.70;;;36.90;37.40;;;;;;4994586;28;20441;-43
2022/08/03 11:19:52;;;;;;;2.90;2.70;;;36.00;38.40;;;;;;4995929;28;20491;-41
2022/08/03 11:22:19;;;;;;;3.53;3.23;;;36.20;38.80;;;;;;4993249;28;20193;-42
2022/08/03 11:24:46;;;;;;;3.10;2.80;;;36.20;38.40;;;;;;4996334;28;20420;-41
2022/08/03 11:27:15;;;;;;;2.87;2.63;;;36.00;38.20;;;;;;4995514;28;20441;-40
2022/08/03 11:30:08;;;;;;;2.87;2.67;;;36.80;38.50;;;;;;4994031;28;20643;-42
2022/08/03 11:32:37;;;;;;;2.80;2.60;;;37.50;37.70;;;;;;4992369;28;20451;-40
2022/08/03 11:35:12;;;;;;;2.87;2.67;;;37.30;37.00;;;;;;4994406;28;20898;-40
2022/08/03 11:37:53;;;;;;;3.40;3.17;;;36.70;37.00;;;;;;4995677;28;20463;-40
2022/08/03 11:40:44;;;;;;;2.97;2.70;;;36.50;37.50;;;;;;4996987;28;20494;-42
2022/08/03 11:43:22;;;;;;;2.87;2.67;;;36.60;38.00;;;;;;4994027;28;20498;-40
2022/08/03 11:46:00;;;;;;;3.00;2.70;;;36.50;37.20;;;;;;4994521;28;20393;-42
2022/08/03 11:48:37;;;;;;;2.67;2.47;;;36.50;38.20;;;;;;4995041;28;20838;-42
2022/08/03 11:51:04;;;;;;;3.63;3.33;;;37.20;38.40;;;;;;4994460;28;20719;-43
2022/08/03 11:53:30;;;;;;;2.60;2.40;;;38.10;36.40;;;;;;4994011;28;20386;-45
2022/08/03 11:56:01;;;;;;;2.73;2.50;;;38.60;35.70;;;;;;4992651;28;20511;-41
2022/08/03 11:58:28;;;;;;;3.10;2.90;;;38.90;35.40;;;;;;4996135;28;20230;-42
2022/08/03 12:01:03;;;;;;;2.90;2.70;;;39.10;35.10;;;;;;4996701;28;20438;-43
2022/08/03 12:03:32;;;;;;;3.10;2.80;;;39.10;34.60;;;;;;4995112;28;20832;-46
2022/08/03 12:05:57;;;;;;;3.37;3.07;;;39.10;34.70;;;;;;4992378;28;20403;-41
2022/08/03 12:08:25;;;;;;;3.73;2.80;;;39.20;35.30;;;;;;4992052;28;20421;-42
2022/08/03 12:10:52;;;;;;;3.47;2.70;;;39.80;34.80;;;;;;4993443;28;20182;-42
2022/08/03 12:13:19;;;;;;;2.70;2.50;;;40.10;35.20;;;;;;4994467;28;20457;-41
2022/08/03 12:15:53;;;;;;;2.77;2.47;;;40.00;33.40;;;;;;4994618;28;20477;-42
2022/08/03 12:18:20;;;;;;;3.03;2.73;;;39.10;34.30;;;;;;4993346;28;20503;-41
2022/08/03 12:20:48;;;;;;;3.13;2.80;;;38.30;34.90;;;;;;4995399;28;20547;-41
2022/08/03 12:23:14;;;;;;;3.47;3.07;;;37.60;35.70;;;;;;5009884;28;20411;-42
2022/08/03 12:25:41;;;;;;;3.30;3.00;;;37.60;35.90;;;;;;4996222;28;20447;-42
2022/08/03 12:28:21;;;;;;;2.83;2.63;;;37.90;35.30;;;;;;4995503;28;20204;-43
2022/08/03 12:30:49;;;;;;;2.67;2.47;;;38.30;36.40;;;;;;4995542;28;20413;-43
2022/08/03 12:33:20;;;;;;;3.70;2.87;;;39.20;36.00;;;;;;4995561;28;20480;-42
2022/08/03 12:36:05;;;;;;;3.10;2.83;;;40.10;35.20;;;;;;4996919;28;20482;-42
2022/08/03 12:38:32;;;;;;;3.23;2.87;;;41.00;34.40;;;;;;4996764;28;20408;-43
2022/08/03 12:41:05;;;;;;;3.00;2.80;;;41.90;32.50;;;;;;4996881;28;20830;-42
2022/08/03 12:43:31;;;;;;;2.77;2.57;;;42.20;33.40;;;;;;4996481;28;20562;-42
2022/08/03 12:46:13;;;;;;;4.50;2.43;;;42.30;31.60;;;;;;4994342;28;20511;-42
2022/08/03 12:49:07;;;;;;;3.00;2.80;;;42.30;31.20;;;;;;4996641;28;20168;-41
2022/08/03 12:51:35;;;;;;;2.90;2.70;;;42.40;31.90;;;;;;4995289;28;20491;-43
2022/08/03 12:54:01;;;;;;;3.10;2.90;;;42.80;32.40;;;;;;4994298;28;20401;-42
2022/08/03 12:56:27;;;;;;;3.37;3.17;;;43.00;31.60;;;;;;4993460;28;20500;-43
2022/08/03 12:58:53;;;;;;;2.77;2.57;;;42.80;31.00;;;;;;4993203;28;20875;-41
2022/08/03 13:01:21;;;;;;;3.00;2.80;;;42.90;30.30;;;;;;4994805;28;20191;-41
2022/08/03 13:03:48;;;;;;;2.87;2.57;;;42.80;31.30;;;;;;4995960;28;20557;-42
2022/08/03 13:06:24;;;;;;;3.03;2.83;;;42.90;30.40;;;;;;4993674;28;20487;-41